ADDS METAR Data INFO
IDs: Format: Raw Decoded Include TAF

Data at: 1118 UTC 21 Feb 2018

PAGY 201453Z AUTO 00000KT 10SM CLR M06/M09 A3032 RMK SLP266 T10561089 58009 TSNO VIA AUTODIAL
PAGY 201353Z AUTO 00000KT 10SM CLR M06/M09 A3033 RMK SLP271 T10561089 TSNO $ VIA AUTODIAL
PAGY 201253Z AUTO 00000KT 10SM CLR M05/M09 A3034 RMK SLP273 T10501089 TSNO $ VIA AUTODIAL
PAGY 201153Z AUTO 00000KT 10SM CLR M03/M08 A3035 RMK SLP276 T10331078 11011 21056 56004 TSNO $ VIA AUTODIAL
PAGY 201053Z AUTO 02005KT 9SM CLR M04/M08 A3035 RMK SLP278 T10391083 TSNO $ VIA AUTODIAL
PAGY 200953Z AUTO 00000KT 10SM CLR M04/M08 A3035 RMK SLP277 T10391078 TSNO $ VIA AUTODIAL
PAGY 200853Z AUTO 36007KT 10SM CLR M04/M08 A3036 RMK SLP279 T10391078 400281072 51006 TSNO $ VIA AUTODIAL
PAGY 200753Z AUTO 03003KT 9SM CLR M03/M08 A3035 RMK SLP278 T10331078 TSNO $ VIA AUTODIAL
PAGY 200653Z AUTO 10SM CLR M03/M08 A3035 RMK SLP276 T10281078 TSNO $ VIA AUTODIAL
PAGY 200553Z AUTO 00000KT 9SM CLR M02/M07 A3034 RMK SLP274 T10171072 10028 21017 51015 TSNO $ VIA AUTODIAL
PAGY 200453Z AUTO 00000KT 10SM CLR M02/M08 A3033 RMK SLP271 T10171078 TSNO $ VIA AUTODIAL
PAGY 200353Z AUTO 00000KT 10SM CLR 00/M08 A3031 RMK SLP262 T00001078 TSNO $ VIA AUTODIAL
PAGY 200253Z AUTO 00000KT 10SM CLR 01/M08 A3030 RMK SLP259 T00111078 53006 TSNO $ VIA AUTODIAL
PAGY 200153Z AUTO 03011G16KT 10SM CLR 02/M09 A3028 RMK SLP253 T00221089 TSNO $ VIA AUTODIAL
PAGY 200053Z AUTO VRB03KT 10SM CLR 02/M09 A3027 RMK SLP251 T00221089 TSNO $ VIA AUTODIAL
PAGY 192353Z AUTO 00000KT 10SM CLR 02/M09 A3028 RMK SLP252 T00221089 10022 21056 56005 TSNO $ VIA AUTODIAL